createdAt,value
2023-01-30T00:01:47.283Z,12.55
2023-01-30T00:04:17.018Z,12.45
2023-01-30T00:06:44.629Z,11.67
2023-01-30T00:09:15.476Z,12.00
2023-01-30T00:11:42.735Z,11.73
2023-01-30T00:14:09.636Z,11.80
2023-01-30T00:16:36.786Z,12.23
2023-01-30T00:19:03.916Z,11.70
2023-01-30T00:21:30.989Z,10.95
2023-01-30T00:23:57.901Z,10.60
2023-01-30T00:26:24.719Z,11.68
2023-01-30T00:28:51.602Z,11.45
2023-01-30T00:31:18.493Z,10.87
2023-01-30T00:33:45.320Z,10.80
2023-01-30T00:36:12.542Z,10.05
2023-01-30T00:38:39.486Z,9.00
2023-01-30T00:41:06.407Z,10.20
2023-01-30T00:43:51.833Z,10.13
2023-01-30T00:46:54.903Z,9.35
2023-01-30T00:49:21.754Z,8.43
2023-01-30T00:51:48.723Z,8.60
2023-01-30T00:54:15.675Z,7.70
2023-01-30T00:56:42.548Z,7.73
2023-01-30T00:59:09.444Z,7.22
2023-01-30T01:01:37.940Z,8.05
2023-01-30T01:04:05.169Z,6.70
2023-01-30T01:06:32.191Z,7.18
2023-01-30T01:08:59.040Z,6.53
2023-01-30T01:11:26.065Z,6.68
2023-01-30T01:13:55.064Z,7.00
2023-01-30T01:16:22.177Z,7.03
2023-01-30T01:18:49.645Z,7.13
2023-01-30T01:21:18.648Z,6.07
2023-01-30T01:23:51.496Z,6.25
2023-01-30T01:26:18.470Z,6.40
2023-01-30T01:28:45.439Z,6.60
2023-01-30T01:31:14.733Z,7.07
2023-01-30T01:33:41.666Z,6.47
2023-01-30T01:36:09.207Z,6.93
2023-01-30T01:38:36.115Z,6.30
2023-01-30T01:41:02.962Z,6.35
2023-01-30T01:43:36.759Z,5.75
2023-01-30T01:46:21.299Z,6.67
2023-01-30T01:48:56.515Z,6.38
2023-01-30T01:51:31.849Z,6.68
2023-01-30T01:54:06.678Z,5.97
2023-01-30T01:56:36.028Z,5.13
2023-01-30T01:59:08.793Z,6.03
2023-01-30T02:01:35.702Z,5.78
2023-01-30T02:04:06.270Z,5.40
2023-01-30T02:06:33.130Z,5.35
2023-01-30T02:09:06.107Z,5.38
2023-01-30T02:11:49.571Z,5.03
2023-01-30T02:14:19.180Z,4.93
2023-01-30T02:16:47.501Z,4.90
2023-01-30T02:19:42.702Z,5.85
2023-01-30T02:22:20.846Z,4.35
2023-01-30T02:24:50.681Z,4.37
2023-01-30T02:27:33.558Z,3.80
2023-01-30T02:30:09.660Z,4.07
2023-01-30T02:33:10.500Z,4.03
2023-01-30T02:36:01.458Z,3.45
2023-01-30T02:39:09.838Z,3.80
2023-01-30T02:41:54.227Z,3.72
2023-01-30T02:44:39.256Z,3.83
2023-01-30T02:47:19.299Z,3.50
2023-01-30T02:49:54.908Z,3.58
2023-01-30T02:52:23.305Z,4.23
2023-01-30T02:54:50.217Z,3.50
2023-01-30T02:57:22.978Z,3.83
2023-01-30T02:59:57.086Z,3.33
2023-01-30T03:02:43.515Z,4.10
2023-01-30T03:05:13.190Z,3.23
2023-01-30T03:07:50.724Z,3.38
2023-01-30T03:10:33.479Z,3.25
2023-01-30T03:13:15.099Z,3.40
2023-01-30T03:15:55.954Z,3.03
2023-01-30T03:18:23.052Z,3.43
2023-01-30T03:20:50.286Z,2.97
2023-01-30T03:23:17.427Z,3.20
2023-01-30T03:25:47.889Z,2.08
2023-01-30T03:28:18.664Z,2.67
2023-01-30T03:30:45.509Z,2.33
2023-01-30T03:33:12.386Z,2.58
2023-01-30T03:35:39.341Z,3.22
2023-01-30T03:38:06.251Z,2.60
2023-01-30T03:40:33.217Z,2.03
2023-01-30T03:43:00.116Z,2.67
2023-01-30T03:45:26.919Z,2.40
2023-01-30T03:47:53.783Z,2.67
2023-01-30T03:50:20.663Z,2.40
2023-01-30T03:52:47.575Z,2.17
2023-01-30T03:55:14.497Z,2.23
2023-01-30T03:57:41.389Z,2.35
2023-01-30T04:00:09.403Z,2.05
2023-01-30T04:02:36.224Z,1.65
2023-01-30T04:05:03.122Z,1.92
2023-01-30T04:07:30.217Z,1.87
2023-01-30T04:09:57.439Z,1.67
2023-01-30T04:12:24.308Z,1.67
2023-01-30T04:14:51.112Z,1.98
2023-01-30T04:17:17.915Z,1.77
2023-01-30T04:19:44.821Z,1.80
2023-01-30T04:22:11.658Z,1.50
2023-01-30T04:24:38.548Z,2.00
2023-01-30T04:27:05.299Z,1.98
2023-01-30T04:29:32.210Z,1.25
2023-01-30T04:31:58.988Z,1.70
2023-01-30T04:34:25.857Z,1.60
2023-01-30T04:36:52.782Z,1.50
2023-01-30T04:39:21.244Z,1.70
2023-01-30T04:41:48.960Z,2.20
2023-01-30T04:44:15.799Z,1.40
2023-01-30T04:46:42.661Z,1.65
2023-01-30T04:49:12.603Z,1.83
2023-01-30T04:51:39.594Z,1.35
2023-01-30T04:54:06.889Z,1.60
2023-01-30T04:56:33.818Z,1.90
2023-01-30T04:59:00.677Z,1.25
2023-01-30T05:01:33.331Z,1.58
2023-01-30T05:04:00.973Z,1.20
2023-01-30T05:06:27.943Z,1.58
2023-01-30T05:08:56.554Z,1.47
2023-01-30T05:11:24.934Z,1.73
2023-01-30T05:13:52.537Z,1.10
2023-01-30T05:16:20.461Z,1.58
2023-01-30T05:18:47.661Z,1.10
2023-01-30T05:21:23.297Z,1.13
2023-01-30T05:23:51.683Z,1.10
2023-01-30T05:26:18.646Z,1.08
2023-01-30T05:28:50.745Z,0.93
2023-01-30T05:31:17.615Z,1.50
2023-01-30T05:33:48.619Z,2.10
2023-01-30T05:36:17.775Z,0.82
2023-01-30T05:38:45.457Z,1.00
2023-01-30T05:41:14.384Z,1.48
2023-01-30T05:43:41.733Z,1.58
2023-01-30T05:46:12.135Z,1.20
2023-01-30T05:48:39.075Z,0.85
2023-01-30T05:51:06.064Z,1.45
2023-01-30T05:53:37.341Z,1.08
2023-01-30T05:56:05.972Z,0.85
2023-01-30T05:58:33.968Z,1.17
2023-01-30T06:01:06.646Z,1.10
2023-01-30T06:03:33.533Z,0.88
2023-01-30T06:06:03.273Z,0.90
2023-01-30T06:08:30.626Z,1.33
2023-01-30T06:11:02.533Z,1.47
2023-01-30T06:13:29.851Z,0.95
2023-01-30T06:15:56.851Z,0.93
2023-01-30T06:18:23.981Z,1.52
2023-01-30T06:20:52.328Z,1.23
2023-01-30T06:23:20.749Z,1.23
2023-01-30T06:25:50.246Z,1.08
2023-01-30T06:28:18.226Z,1.25
2023-01-30T06:30:45.508Z,1.33
2023-01-30T06:33:12.463Z,1.40
2023-01-30T06:35:40.208Z,1.60
2023-01-30T06:38:11.561Z,1.52
2023-01-30T06:40:39.935Z,1.58
2023-01-30T06:43:06.913Z,1.27
2023-01-30T06:45:33.932Z,0.80
2023-01-30T06:48:00.807Z,1.83
2023-01-30T06:50:29.450Z,1.33
2023-01-30T06:52:57.054Z,1.10
2023-01-30T06:55:26.861Z,1.50
2023-01-30T06:58:04.541Z,1.90
2023-01-30T07:00:32.321Z,1.23
2023-01-30T07:02:59.436Z,0.88
2023-01-30T07:05:29.039Z,1.70
2023-01-30T07:07:56.123Z,1.60
2023-01-30T07:10:23.669Z,1.58
2023-01-30T07:12:50.543Z,1.03
2023-01-30T07:15:17.761Z,0.90
2023-01-30T07:17:44.933Z,1.65
2023-01-30T07:20:12.228Z,1.10
2023-01-30T07:22:39.276Z,1.45
2023-01-30T07:25:07.111Z,1.33
2023-01-30T07:27:34.619Z,1.40
2023-01-30T07:30:01.738Z,1.30
2023-01-30T07:32:28.679Z,1.40
2023-01-30T07:34:55.700Z,1.80
2023-01-30T07:37:22.587Z,1.80
2023-01-30T07:39:49.448Z,1.35
2023-01-30T07:42:16.462Z,1.55
2023-01-30T07:44:43.401Z,2.05
2023-01-30T07:47:10.225Z,1.00
2023-01-30T07:49:37.239Z,1.20
2023-01-30T07:52:04.277Z,1.20
2023-01-30T07:54:31.149Z,1.98
2023-01-30T07:56:57.926Z,1.30
2023-01-30T07:59:24.858Z,0.95
2023-01-30T08:01:51.748Z,1.23
2023-01-30T08:04:18.736Z,0.95
2023-01-30T08:06:45.994Z,1.35
2023-01-30T08:09:13.008Z,1.83
2023-01-30T08:11:39.957Z,1.45
2023-01-30T08:14:06.779Z,1.27
2023-01-30T08:16:34.331Z,1.05
2023-01-30T08:19:01.353Z,1.40
2023-01-30T08:21:28.336Z,1.55
2023-01-30T08:23:55.343Z,1.33
2023-01-30T08:26:22.484Z,0.97
2023-01-30T08:28:49.682Z,2.15
2023-01-30T08:31:17.871Z,1.50
2023-01-30T08:33:45.006Z,1.13
2023-01-30T08:36:11.908Z,1.33
2023-01-30T08:38:38.858Z,1.00
2023-01-30T08:41:07.793Z,1.33
2023-01-30T08:43:35.166Z,0.88
2023-01-30T08:46:02.617Z,1.00
2023-01-30T08:48:34.111Z,0.90
2023-01-30T08:51:07.245Z,1.40
2023-01-30T08:53:34.208Z,1.98
2023-01-30T08:56:01.155Z,1.15
2023-01-30T08:58:28.052Z,1.23
2023-01-30T09:00:54.946Z,0.93
2023-01-30T09:03:21.875Z,1.50
2023-01-30T09:05:55.226Z,1.10
2023-01-30T09:08:23.000Z,1.15
2023-01-30T09:10:50.035Z,1.38
2023-01-30T09:13:17.497Z,1.38
2023-01-30T09:15:44.455Z,0.97
2023-01-30T09:18:11.360Z,1.05
2023-01-30T09:20:39.076Z,1.10
2023-01-30T09:23:06.031Z,2.45
2023-01-30T09:25:32.989Z,1.75
2023-01-30T09:28:03.127Z,1.10
2023-01-30T09:30:30.258Z,0.93
2023-01-30T09:32:58.607Z,2.17
2023-01-30T10:20:07.005Z,1.42
2023-01-30T10:22:56.049Z,1.83
2023-01-30T10:25:37.525Z,1.50
2023-01-30T10:28:19.383Z,3.13
2023-01-30T10:30:53.165Z,1.33
2023-01-30T10:33:28.861Z,1.50
2023-01-30T10:36:04.318Z,1.10
2023-01-30T10:38:41.890Z,1.63
2023-01-30T10:41:12.756Z,0.98
2023-01-30T10:43:58.493Z,1.60
2023-01-30T10:46:36.999Z,1.00
2023-01-30T10:49:14.117Z,1.30
2023-01-30T10:52:18.769Z,1.35
2023-01-30T10:54:56.630Z,1.67
2023-01-30T10:57:41.277Z,1.35
2023-01-30T11:00:10.767Z,1.63
2023-01-30T11:03:07.910Z,1.50
2023-01-30T11:05:44.396Z,1.35
2023-01-30T11:08:17.073Z,1.02
2023-01-30T11:10:43.714Z,1.98
2023-01-30T11:13:26.777Z,1.42
2023-01-30T11:15:58.707Z,1.80
2023-01-30T11:19:18.355Z,2.20
2023-01-30T11:21:43.453Z,1.67
2023-01-30T11:24:17.136Z,0.85
2023-01-30T11:26:47.797Z,1.95
2023-01-30T11:29:30.397Z,1.40
2023-01-30T11:32:02.986Z,1.27
2023-01-30T11:34:29.612Z,1.23
2023-01-30T11:37:35.448Z,1.92
2023-01-30T11:40:17.520Z,1.80
2023-01-30T11:42:47.296Z,1.97
2023-01-30T11:45:18.059Z,1.90
2023-01-30T11:48:07.892Z,1.70
2023-01-30T11:50:49.808Z,1.98
2023-01-30T11:53:39.840Z,2.05
2023-01-30T11:56:36.444Z,1.53
2023-01-30T11:59:07.241Z,1.10
2023-01-30T12:01:37.002Z,1.95
2023-01-30T12:04:14.279Z,1.63
2023-01-30T12:06:43.111Z,1.63
2023-01-30T12:09:50.595Z,1.77
2023-01-30T12:12:51.901Z,2.10
2023-01-30T12:15:35.271Z,1.90
2023-01-30T12:18:16.388Z,1.45
2023-01-30T12:20:48.501Z,1.05
2023-01-30T12:23:29.729Z,1.90
2023-01-30T12:26:13.738Z,1.60
2023-01-30T12:29:02.215Z,1.77
2023-01-30T12:31:46.357Z,1.60
2023-01-30T12:34:14.129Z,1.52
2023-01-30T12:36:57.041Z,1.83
2023-01-30T12:39:49.735Z,1.60
2023-01-30T12:42:34.773Z,1.58
2023-01-30T12:45:32.922Z,1.17
2023-01-30T12:48:29.549Z,1.77
2023-01-30T12:51:10.287Z,1.23
2023-01-30T12:53:47.719Z,1.38
2023-01-30T12:56:38.907Z,1.70
2023-01-30T12:59:19.390Z,1.35
2023-01-30T13:02:02.452Z,1.20
2023-01-30T13:04:28.775Z,1.30
2023-01-30T13:06:58.301Z,1.77
2023-01-30T13:10:02.452Z,1.35
2023-01-30T13:12:49.492Z,1.50
2023-01-30T13:15:29.818Z,1.40
2023-01-30T13:18:16.000Z,1.50
2023-01-30T13:21:07.753Z,1.27
2023-01-30T13:23:49.871Z,1.20
2023-01-30T13:26:21.501Z,1.40
2023-01-30T13:28:59.400Z,1.48
2023-01-30T13:31:31.921Z,1.13
2023-01-30T13:34:09.978Z,1.98
2023-01-30T13:36:59.171Z,1.50
2023-01-30T13:39:42.222Z,1.38
2023-01-30T13:42:32.352Z,2.17
2023-01-30T13:45:01.516Z,1.23
2023-01-30T13:48:01.881Z,1.20
2023-01-30T13:50:54.109Z,1.55
2023-01-30T13:53:35.419Z,1.55
2023-01-30T13:56:40.797Z,1.25
2023-01-30T13:59:25.283Z,1.57
2023-01-30T14:02:03.973Z,1.67
2023-01-30T14:04:30.515Z,1.90
2023-01-30T14:07:17.048Z,1.40
2023-01-30T14:09:50.229Z,1.58
2023-01-30T14:12:26.026Z,1.83
2023-01-30T14:15:21.897Z,1.50
2023-01-30T14:18:04.002Z,1.08
2023-01-30T14:20:36.510Z,0.90
2023-01-30T14:23:32.237Z,1.23
2023-01-30T14:25:58.770Z,1.37
2023-01-30T14:28:25.185Z,1.30
2023-01-30T14:30:54.580Z,1.67
2023-01-30T14:33:20.958Z,1.27
2023-01-30T14:35:49.401Z,1.15
2023-01-30T14:38:18.541Z,1.30
2023-01-30T14:40:46.142Z,1.65
2023-01-30T14:43:12.518Z,1.30
2023-01-30T14:45:52.604Z,1.35
2023-01-30T14:48:27.724Z,1.63
2023-01-30T14:51:28.007Z,1.47
2023-01-30T14:54:17.152Z,2.00
2023-01-30T14:57:00.167Z,1.40
2023-01-30T14:59:31.981Z,1.15
2023-01-30T15:02:13.888Z,1.40
2023-01-30T15:04:45.718Z,1.90
2023-01-30T15:07:19.982Z,1.67
2023-01-30T15:09:54.055Z,1.48
2023-01-30T15:12:26.495Z,1.48
2023-01-30T15:15:18.114Z,1.27
2023-01-30T15:18:23.628Z,1.50
2023-01-30T15:21:13.998Z,1.45
2023-01-30T15:23:58.928Z,1.77
2023-01-30T15:26:40.377Z,1.20
2023-01-30T15:29:48.589Z,1.10
2023-01-30T15:32:20.756Z,1.50
2023-01-30T15:34:53.241Z,1.15
2023-01-30T15:37:36.585Z,1.13
2023-01-30T15:40:14.834Z,1.60
2023-01-30T15:42:46.249Z,1.70
2023-01-30T15:45:23.318Z,1.33
2023-01-30T15:48:16.338Z,1.90
2023-01-30T15:50:51.578Z,2.08
2023-01-30T15:53:18.157Z,1.70
2023-01-30T15:55:45.203Z,2.03
2023-01-30T15:58:18.853Z,1.47
2023-01-30T16:00:54.826Z,1.42
2023-01-30T16:03:25.333Z,2.08
2023-01-30T16:05:57.023Z,1.30
2023-01-30T16:08:32.417Z,1.50
2023-01-30T16:11:00.614Z,1.60
2023-01-30T16:13:28.434Z,1.77
2023-01-30T16:16:07.358Z,1.23
2023-01-30T16:18:38.528Z,2.22
2023-01-30T16:21:09.626Z,1.63
2023-01-30T16:23:52.337Z,1.20
2023-01-30T16:26:21.703Z,2.15
2023-01-30T16:28:51.012Z,1.73
2023-01-30T16:31:18.715Z,1.60
2023-01-30T16:33:52.197Z,1.55
2023-01-30T16:36:21.641Z,1.03
2023-01-30T16:38:49.644Z,1.60
2023-01-30T16:41:39.970Z,1.50
2023-01-30T16:44:25.800Z,1.70
2023-01-30T16:47:07.600Z,2.13
2023-01-30T16:49:36.786Z,1.27
2023-01-30T16:52:11.273Z,1.70
2023-01-30T16:54:41.013Z,1.35
2023-01-30T16:57:10.500Z,1.52
2023-01-30T16:59:38.065Z,1.58
2023-01-30T17:02:06.700Z,1.20
2023-01-30T17:04:50.758Z,1.65
2023-01-30T17:07:35.027Z,1.48
2023-01-30T17:10:01.539Z,2.05
2023-01-30T17:12:31.132Z,1.30
2023-01-30T17:15:09.997Z,2.40
2023-01-30T17:17:42.787Z,2.20
2023-01-30T17:20:11.144Z,1.65
2023-01-30T17:22:39.537Z,1.00
2023-01-30T17:25:38.375Z,1.17
2023-01-30T17:28:07.451Z,1.63
2023-01-30T17:30:35.339Z,1.35
2023-01-30T17:33:02.285Z,2.03
2023-01-30T17:35:28.782Z,1.90
2023-01-30T17:38:04.622Z,1.38
2023-01-30T17:40:35.589Z,1.60
2023-01-30T17:43:02.326Z,1.63
2023-01-30T17:45:29.093Z,1.83
2023-01-30T17:47:55.911Z,2.05
2023-01-30T17:50:23.084Z,1.73
2023-01-30T17:52:49.580Z,1.30
2023-01-30T17:55:16.270Z,1.85
2023-01-30T17:57:46.721Z,1.77
2023-01-30T18:00:21.279Z,1.08
2023-01-30T18:02:48.200Z,1.30
2023-01-30T18:05:15.360Z,2.27
2023-01-30T18:07:42.501Z,1.27
2023-01-30T18:10:14.389Z,1.48
2023-01-30T18:12:40.911Z,1.35
2023-01-30T18:15:08.279Z,1.58
2023-01-30T18:17:42.354Z,1.17
2023-01-30T18:20:10.701Z,1.13
2023-01-30T18:22:37.151Z,1.10
2023-01-30T18:25:03.957Z,1.00
2023-01-30T18:27:30.399Z,1.77
2023-01-30T18:29:56.845Z,1.20
2023-01-30T18:32:23.217Z,1.13
2023-01-30T18:34:49.766Z,0.85
2023-01-30T18:37:16.852Z,1.25
2023-01-30T18:39:43.269Z,1.88
2023-01-30T18:42:09.973Z,1.27
2023-01-30T18:44:36.750Z,1.05
2023-01-30T18:47:03.235Z,1.92
2023-01-30T18:49:30.337Z,1.30
2023-01-30T18:51:56.782Z,1.45
2023-01-30T18:54:23.281Z,2.07
2023-01-30T18:56:49.827Z,1.70
2023-01-30T18:59:16.297Z,1.63
2023-01-30T19:01:42.890Z,2.10
2023-01-30T19:04:11.295Z,1.52
2023-01-30T19:06:40.993Z,1.60
2023-01-30T19:09:08.569Z,1.90
2023-01-30T19:11:53.499Z,1.52
2023-01-30T19:14:20.032Z,2.58
2023-01-30T19:16:46.478Z,1.23
2023-01-30T19:19:13.421Z,2.20
2023-01-30T19:21:40.000Z,2.00
2023-01-30T19:24:07.893Z,1.85
2023-01-30T19:26:35.081Z,1.98
2023-01-30T19:29:01.715Z,1.58
2023-01-30T19:31:28.453Z,1.17
2023-01-30T19:33:58.196Z,1.55
2023-01-30T19:36:26.170Z,1.98
2023-01-30T19:38:53.186Z,1.92
2023-01-30T19:41:25.796Z,2.20
2023-01-30T19:43:53.594Z,1.50
2023-01-30T19:46:21.251Z,1.55
2023-01-30T19:48:48.678Z,1.40
2023-01-30T19:51:23.769Z,1.10
2023-01-30T19:53:52.883Z,1.75
2023-01-30T19:56:21.790Z,1.63
2023-01-30T19:58:50.751Z,2.05
2023-01-30T20:01:19.924Z,2.00
2023-01-30T20:03:46.983Z,2.08
2023-01-30T20:06:26.131Z,2.30
2023-01-30T20:08:59.896Z,1.57
2023-01-30T20:11:27.231Z,2.17
2023-01-30T20:13:54.357Z,2.42
2023-01-30T20:16:25.181Z,1.90
2023-01-30T20:18:56.879Z,1.88
2023-01-30T20:21:23.953Z,1.43
2023-01-30T20:23:50.826Z,2.10
2023-01-30T20:26:20.189Z,2.00
2023-01-30T20:28:46.937Z,1.80
2023-01-30T20:31:19.172Z,1.75
2023-01-30T20:33:45.970Z,1.97
2023-01-30T20:36:15.920Z,2.05
2023-01-30T20:38:43.989Z,1.38
2023-01-30T20:41:13.387Z,1.70
2023-01-30T20:43:41.789Z,2.17
2023-01-30T20:46:14.297Z,1.90
2023-01-30T20:48:41.186Z,2.67
2023-01-30T20:51:10.538Z,2.50
2023-01-30T20:53:40.127Z,2.10
2023-01-30T20:56:07.316Z,1.45
2023-01-30T20:58:34.001Z,1.53
2023-01-30T21:01:11.872Z,2.53
2023-01-30T21:03:39.544Z,1.80
2023-01-30T21:06:06.170Z,1.63
2023-01-30T21:08:33.070Z,1.95
2023-01-30T21:11:06.957Z,1.50
2023-01-30T21:13:35.017Z,2.15
2023-01-30T21:16:14.151Z,1.38
2023-01-30T21:18:43.274Z,1.88
2023-01-30T21:21:16.795Z,1.38
2023-01-30T21:23:43.396Z,1.40
2023-01-30T21:26:12.956Z,2.38
2023-01-30T21:28:39.586Z,1.80
2023-01-30T21:31:07.967Z,1.58
2023-01-30T21:33:35.028Z,1.52
2023-01-30T21:36:02.367Z,1.70
2023-01-30T21:38:47.574Z,2.20
2023-01-30T21:41:40.399Z,1.98
2023-01-30T21:44:06.973Z,1.13
2023-01-30T21:46:45.482Z,1.67
2023-01-30T21:49:12.169Z,0.97
2023-01-30T21:51:41.935Z,1.85
2023-01-30T21:54:08.702Z,1.38
2023-01-30T21:56:35.581Z,1.30
2023-01-30T21:59:03.909Z,1.27
2023-01-30T22:01:30.446Z,1.47
2023-01-30T22:04:01.298Z,2.10
2023-01-30T22:06:29.148Z,1.27
2023-01-30T22:08:56.356Z,1.63
2023-01-30T22:11:23.233Z,1.38
2023-01-30T22:13:50.045Z,1.63
2023-01-30T22:16:20.611Z,2.35
2023-01-30T22:18:50.973Z,1.30
2023-01-30T22:21:20.027Z,1.10
2023-01-30T22:23:48.873Z,1.30
2023-01-30T22:26:17.534Z,1.60
2023-01-30T22:28:44.506Z,1.27
2023-01-30T22:31:20.284Z,1.63
2023-01-30T22:33:49.449Z,1.33
2023-01-30T22:36:16.112Z,1.63
2023-01-30T22:38:44.108Z,1.43
2023-01-30T22:41:15.847Z,0.90
2023-01-30T22:43:47.335Z,1.65
2023-01-30T22:46:15.329Z,1.20
2023-01-30T22:48:42.297Z,1.33
2023-01-30T22:51:17.524Z,1.20
2023-01-30T22:53:49.886Z,1.17
2023-01-30T22:56:19.589Z,1.55
2023-01-30T22:58:46.822Z,1.15
2023-01-30T23:01:29.538Z,1.40
2023-01-30T23:04:00.277Z,1.10
2023-01-30T23:06:27.659Z,1.10
2023-01-30T23:08:55.338Z,1.02
2023-01-30T23:11:28.530Z,1.05
2023-01-30T23:13:58.470Z,1.20
2023-01-30T23:16:27.605Z,1.83
2023-01-30T23:18:58.543Z,0.93
2023-01-30T23:21:28.099Z,0.98
2023-01-30T23:23:57.171Z,1.10
2023-01-30T23:26:27.008Z,1.13
2023-01-30T23:28:53.909Z,0.80
2023-01-30T23:31:23.146Z,1.10
2023-01-30T23:33:54.719Z,1.30
2023-01-30T23:36:21.525Z,0.88
2023-01-30T23:38:49.586Z,1.38
2023-01-30T23:41:18.755Z,0.87
2023-01-30T23:43:46.609Z,1.08
2023-01-30T23:46:21.821Z,1.13
2023-01-30T23:48:51.635Z,1.17
2023-01-30T23:51:20.076Z,1.05
2023-01-30T23:53:47.544Z,0.90
2023-01-30T23:56:14.881Z,1.60
2023-01-30T23:58:42.063Z,1.10
